Time;durP1;ratioP1;P1;durP2;ratioP2;P2;SDS_P1;SDS_P2;PMS_P1;PMS_P2;Temp;Humidity;BMP_temperature;BMP_pressure;BME280_temperature;BME280_humidity;BME280_pressure;Samples;Min_cycle;Max_cycle;Signal;HPM_P1;HPM_P2
2023/09/18 00:02:21;;;;;;;6.72;4.03;;;17.20;99.90;;;;;;4884540;29;20096;-68
2023/09/18 00:04:48;;;;;;;5.43;4.60;;;17.10;99.90;;;;;;4891864;29;20037;-68
2023/09/18 00:07:19;;;;;;;6.40;4.40;;;17.10;99.90;;;;;;4891921;29;20043;-68
2023/09/18 00:09:52;;;;;;;5.80;4.40;;;17.10;99.90;;;;;;4890767;29;20048;-68
2023/09/18 00:12:24;;;;;;;6.60;4.82;;;17.10;99.90;;;;;;4893362;29;20051;-68
2023/09/18 00:14:51;;;;;;;6.22;4.57;;;17.10;99.90;;;;;;4888904;29;20407;-68
2023/09/18 00:17:23;;;;;;;5.43;4.35;;;17.10;99.90;;;;;;4883108;29;20041;-68
2023/09/18 00:19:55;;;;;;;5.30;4.80;;;17.10;99.90;;;;;;4871612;29;20539;-68
2023/09/18 00:22:24;;;;;;;5.38;4.35;;;17.10;99.90;;;;;;4892383;29;20043;-68
2023/09/18 00:24:51;;;;;;;5.22;4.38;;;17.00;99.90;;;;;;4886140;29;20045;-68
2023/09/18 00:27:23;;;;;;;6.35;4.88;;;17.00;99.90;;;;;;4881975;29;20045;-68
2023/09/18 00:29:50;;;;;;;6.18;4.43;;;17.00;99.90;;;;;;4906270;29;20044;-68
2023/09/18 00:32:17;;;;;;;6.28;4.65;;;16.90;99.90;;;;;;4895573;29;20517;-68
2023/09/18 00:34:49;;;;;;;4.30;3.90;;;16.90;99.90;;;;;;4901794;29;20071;-68
2023/09/18 00:37:20;;;;;;;7.03;4.47;;;16.90;99.90;;;;;;4885051;29;20048;-68
2023/09/18 00:39:52;;;;;;;4.03;3.67;;;16.80;99.90;;;;;;4888680;29;20045;-68
2023/09/18 00:42:25;;;;;;;5.72;5.05;;;16.80;99.90;;;;;;4900907;29;20045;-68
2023/09/18 00:44:57;;;;;;;4.93;4.40;;;16.80;99.90;;;;;;4906794;29;20044;-68
2023/09/18 00:47:24;;;;;;;5.22;4.55;;;16.80;99.90;;;;;;4891045;29;20151;-68
2023/09/18 00:49:52;;;;;;;4.80;4.30;;;16.80;99.90;;;;;;4887227;29;20051;-68
2023/09/18 00:52:25;;;;;;;5.40;4.75;;;16.80;99.90;;;;;;4881393;29;20144;-68
2023/09/18 00:54:56;;;;;;;5.30;4.80;;;16.80;99.90;;;;;;4888748;29;20057;-68
2023/09/18 00:57:29;;;;;;;6.53;4.63;;;16.90;99.90;;;;;;4891983;29;20526;-68
2023/09/18 00:59:55;;;;;;;6.00;4.35;;;16.90;99.90;;;;;;4901480;29;20131;-68
2023/09/18 01:02:27;;;;;;;6.85;5.68;;;16.80;99.90;;;;;;4898337;29;20107;-68
2023/09/18 01:04:55;;;;;;;6.57;5.03;;;16.90;99.90;;;;;;4903903;29;20071;-68
2023/09/18 01:07:30;;;;;;;7.50;4.70;;;16.90;99.90;;;;;;4892235;29;20475;-68
2023/09/18 01:09:57;;;;;;;5.63;4.60;;;16.90;99.90;;;;;;4903611;29;20069;-68
2023/09/18 01:12:45;;;;;;;5.68;5.10;;;16.80;99.90;;;;;;4875035;29;20050;-68
2023/09/18 01:15:18;;;;;;;6.05;5.22;;;16.80;99.90;;;;;;4892682;29;20112;-68
2023/09/18 01:17:51;;;;;;;8.90;4.50;;;16.80;99.90;;;;;;4904653;29;20048;-68
2023/09/18 01:20:17;;;;;;;4.90;4.40;;;16.70;99.90;;;;;;4888994;29;20040;-68
2023/09/18 01:22:44;;;;;;;8.23;4.18;;;16.60;99.90;;;;;;4896558;29;20539;-68
2023/09/18 01:25:16;;;;;;;5.25;4.32;;;16.60;99.90;;;;;;4899035;29;20048;-68
2023/09/18 01:27:48;;;;;;;5.47;4.78;;;16.60;99.90;;;;;;4902622;29;20051;-68
2023/09/18 01:30:20;;;;;;;5.93;4.38;;;16.60;99.90;;;;;;4899460;29;20096;-68
2023/09/18 01:32:53;;;;;;;5.72;5.13;;;16.60;99.90;;;;;;4902657;29;20055;-68
2023/09/18 01:35:22;;;;;;;7.88;5.70;;;16.60;99.90;;;;;;4866860;29;20473;-68
2023/09/18 01:37:50;;;;;;;6.20;4.93;;;16.60;99.90;;;;;;4898851;29;20131;-68
2023/09/18 01:40:18;;;;;;;5.65;5.10;;;16.60;99.90;;;;;;4900668;29;20123;-68
2023/09/18 01:42:50;;;;;;;6.65;4.32;;;16.50;99.90;;;;;;4903857;29;20055;-68
2023/09/18 01:45:22;;;;;;;4.75;4.25;;;16.50;99.90;;;;;;4903295;29;20051;-69
2023/09/18 01:47:54;;;;;;;5.72;4.88;;;16.30;99.90;;;;;;4890478;29;20529;-67
2023/09/18 01:50:21;;;;;;;7.10;5.40;;;16.30;99.90;;;;;;4884480;29;20071;-68
2023/09/18 01:52:48;;;;;;;6.85;5.03;;;16.30;99.90;;;;;;4899224;29;20040;-69
2023/09/18 01:55:19;;;;;;;5.07;4.53;;;16.30;99.90;;;;;;4892317;29;20044;-69
2023/09/18 01:57:52;;;;;;;6.82;4.85;;;16.40;99.90;;;;;;4884317;29;20053;-69
2023/09/18 02:00:23;;;;;;;7.50;5.25;;;16.40;99.90;;;;;;4863266;29;20045;-69
2023/09/18 02:02:56;;;;;;;5.68;4.50;;;16.40;99.90;;;;;;4888358;29;20049;-69
2023/09/18 02:05:23;;;;;;;4.85;4.43;;;16.40;99.90;;;;;;4892676;29;20075;-69
2023/09/18 02:07:56;;;;;;;6.87;5.10;;;16.50;99.90;;;;;;4899400;29;20424;-67
2023/09/18 02:10:27;;;;;;;6.28;5.00;;;16.50;99.90;;;;;;4883114;29;20301;-69
2023/09/18 02:12:54;;;;;;;6.63;4.80;;;16.50;99.90;;;;;;4899271;29;20110;-69
2023/09/18 02:15:26;;;;;;;5.68;4.88;;;16.50;99.90;;;;;;4890359;29;20051;-69
2023/09/18 02:17:58;;;;;;;4.80;4.38;;;16.50;99.90;;;;;;4890075;29;20045;-69
2023/09/18 02:20:30;;;;;;;6.82;4.82;;;16.50;99.90;;;;;;4875192;29;20056;-68
2023/09/18 02:23:02;;;;;;;5.78;5.13;;;16.50;99.90;;;;;;4903244;29;20496;-68
2023/09/18 02:25:29;;;;;;;6.45;4.88;;;16.50;99.90;;;;;;4878944;29;20037;-68
2023/09/18 02:28:01;;;;;;;7.47;5.00;;;16.50;99.90;;;;;;4896135;29;20045;-68
2023/09/18 02:30:33;;;;;;;5.15;4.65;;;16.50;99.90;;;;;;4889503;29;20036;-68
2023/09/18 02:33:05;;;;;;;5.18;4.60;;;16.60;99.90;;;;;;4870993;29;20049;-68
2023/09/18 02:35:37;;;;;;;9.70;5.07;;;16.50;99.90;;;;;;4897321;29;20045;-68
2023/09/18 02:38:09;;;;;;;5.40;4.85;;;16.50;99.90;;;;;;4893496;29;20056;-68
2023/09/18 02:40:41;;;;;;;5.80;4.80;;;16.50;99.90;;;;;;4894154;29;20754;-68
2023/09/18 02:43:07;;;;;;;6.22;4.65;;;16.40;99.90;;;;;;4908326;29;20036;-68
2023/09/18 02:45:40;;;;;;;5.65;4.63;;;16.40;99.90;;;;;;4903274;29;20064;-68
2023/09/18 02:48:12;;;;;;;5.22;4.65;;;16.40;99.90;;;;;;4889150;29;20510;-68
2023/09/18 02:50:39;;;;;;;5.57;5.05;;;16.40;99.90;;;;;;4901980;29;20459;-68
2023/09/18 02:53:20;;;;;;;5.45;4.95;;;16.40;99.90;;;;;;4909064;29;20057;-68
2023/09/18 02:55:55;;;;;;;6.95;4.75;;;16.40;99.90;;;;;;4872229;29;20060;-68
2023/09/18 02:58:29;;;;;;;5.05;4.30;;;16.40;99.90;;;;;;4876932;29;20056;-68
2023/09/18 03:01:03;;;;;;;5.97;4.32;;;16.30;99.90;;;;;;4885546;29;20049;-68
2023/09/18 03:03:36;;;;;;;9.00;5.82;;;16.30;99.90;;;;;;4888351;29;20044;-68
2023/09/18 03:06:07;;;;;;;6.68;4.97;;;16.30;99.90;;;;;;4906580;29;20055;-68
2023/09/18 03:08:39;;;;;;;5.93;5.10;;;16.30;99.90;;;;;;4884363;29;20108;-68
2023/09/18 03:11:13;;;;;;;5.13;4.63;;;16.20;99.90;;;;;;4906848;29;20051;-68
2023/09/18 03:13:46;;;;;;;5.90;5.30;;;16.20;99.90;;;;;;4899373;29;20049;-68
2023/09/18 03:16:18;;;;;;;5.95;4.80;;;16.10;99.90;;;;;;4908648;29;20052;-68
2023/09/18 03:18:51;;;;;;;5.10;4.60;;;16.10;99.90;;;;;;4874017;29;20097;-68
2023/09/18 03:21:23;;;;;;;5.47;4.97;;;16.00;99.90;;;;;;4903074;29;20044;-68
2023/09/18 03:23:50;;;;;;;5.75;4.65;;;16.00;99.90;;;;;;4898118;29;20147;-67
2023/09/18 03:26:22;;;;;;;5.75;5.20;;;16.00;99.90;;;;;;4908181;29;20461;-68
2023/09/18 03:28:54;;;;;;;5.70;4.70;;;16.00;99.90;;;;;;4889854;29;20132;-68
2023/09/18 03:31:25;;;;;;;7.18;4.78;;;15.90;99.90;;;;;;4902937;29;20123;-68
2023/09/18 03:33:52;;;;;;;7.13;4.95;;;16.10;99.90;;;;;;4899194;29;20053;-68
2023/09/18 03:36:23;;;;;;;6.45;5.15;;;16.20;99.90;;;;;;4901152;29;20056;-68
2023/09/18 03:38:55;;;;;;;5.97;5.05;;;16.20;99.90;;;;;;4903047;29;20049;-68
2023/09/18 03:41:27;;;;;;;5.88;4.80;;;16.20;99.90;;;;;;4902566;29;20100;-68
2023/09/18 03:44:03;;;;;;;7.40;4.70;;;16.20;99.90;;;;;;4890537;29;20049;-68
2023/09/18 03:46:34;;;;;;;8.70;4.53;;;16.10;99.90;;;;;;4899304;29;20052;-68
2023/09/18 03:49:02;;;;;;;8.52;4.97;;;16.10;99.90;;;;;;4900809;29;20065;-67
2023/09/18 03:51:36;;;;;;;8.90;5.07;;;16.10;99.90;;;;;;4888013;29;20049;-68
2023/09/18 03:54:08;;;;;;;5.57;4.80;;;16.00;99.90;;;;;;4888064;29;20063;-68
2023/09/18 03:56:35;;;;;;;5.45;4.80;;;15.90;99.90;;;;;;4886799;29;20071;-68
2023/09/18 03:59:07;;;;;;;6.18;4.88;;;15.90;99.90;;;;;;4895728;29;20080;-68
2023/09/18 04:01:39;;;;;;;7.97;4.97;;;15.90;99.90;;;;;;4899334;29;20037;-68
2023/09/18 04:04:06;;;;;;;7.13;4.80;;;15.90;99.90;;;;;;4902426;29;20482;-68
2023/09/18 04:06:42;;;;;;;9.82;5.80;;;15.90;99.90;;;;;;4874379;29;20049;-68
2023/09/18 04:09:15;;;;;;;7.65;5.75;;;15.80;99.90;;;;;;4880461;29;20067;-68
2023/09/18 04:11:47;;;;;;;6.70;5.43;;;15.80;99.90;;;;;;4905749;29;20068;-68
2023/09/18 04:14:18;;;;;;;8.48;5.95;;;15.70;99.90;;;;;;4896710;29;20135;-68
2023/09/18 04:16:50;;;;;;;8.18;6.53;;;15.70;99.90;;;;;;4889584;29;20861;-67
2023/09/18 04:19:22;;;;;;;9.48;6.68;;;15.60;99.90;;;;;;4905457;29;20045;-68
2023/09/18 04:21:54;;;;;;;10.38;6.65;;;15.60;99.90;;;;;;4885492;29;20053;-67
2023/09/18 04:24:22;;;;;;;8.18;6.55;;;15.50;99.90;;;;;;4903534;29;20470;-68
2023/09/18 04:26:52;;;;;;;6.97;6.10;;;15.50;99.90;;;;;;4886444;29;20113;-67
2023/09/18 04:29:25;;;;;;;8.98;5.68;;;15.40;99.90;;;;;;4891545;29;20096;-68
2023/09/18 04:31:53;;;;;;;7.80;5.10;;;15.40;99.90;;;;;;4905290;29;20059;-68
2023/09/18 04:34:27;;;;;;;7.63;5.07;;;15.40;99.90;;;;;;4903721;29;20053;-68
2023/09/18 04:36:54;;;;;;;6.40;4.43;;;15.40;99.90;;;;;;4892622;29;20048;-68
2023/09/18 04:39:26;;;;;;;6.85;4.97;;;15.30;99.90;;;;;;4883359;29;20079;-68
2023/09/18 04:41:53;;;;;;;6.40;5.38;;;15.30;99.90;;;;;;4897406;29;20072;-68
2023/09/18 04:44:26;;;;;;;8.93;5.75;;;15.40;99.90;;;;;;4907965;29;20051;-68
2023/09/18 04:46:59;;;;;;;10.52;5.22;;;15.40;99.90;;;;;;4890931;29;20040;-68
2023/09/18 04:49:33;;;;;;;5.90;4.68;;;15.50;99.90;;;;;;4878159;29;20052;-68
2023/09/18 04:52:00;;;;;;;8.75;4.90;;;15.60;99.90;;;;;;4903478;29;20051;-67
2023/09/18 04:54:31;;;;;;;9.32;5.05;;;15.70;99.90;;;;;;4884621;29;20059;-68
2023/09/18 04:57:04;;;;;;;6.05;4.90;;;15.80;99.90;;;;;;4883485;29;20055;-68
2023/09/18 04:59:31;;;;;;;12.18;5.35;;;15.80;99.90;;;;;;4899859;29;20036;-68
2023/09/18 05:02:04;;;;;;;8.07;5.78;;;15.90;99.90;;;;;;4899340;29;20044;-68
2023/09/18 05:04:36;;;;;;;9.02;6.22;;;15.90;99.90;;;;;;4902381;29;20099;-68
2023/09/18 05:07:08;;;;;;;15.73;7.70;;;15.80;99.90;;;;;;4900109;29;20100;-68
2023/09/18 05:09:40;;;;;;;7.25;5.43;;;15.80;99.90;;;;;;4901562;29;20048;-68
2023/09/18 05:12:15;;;;;;;11.75;7.28;;;15.60;99.90;;;;;;4888556;29;20049;-68
2023/09/18 05:14:47;;;;;;;9.38;6.05;;;15.40;99.90;;;;;;4873248;29;20045;-68
2023/09/18 05:17:19;;;;;;;8.00;6.07;;;15.20;99.90;;;;;;4891548;29;20051;-66
2023/09/18 05:19:51;;;;;;;8.43;6.15;;;15.10;99.90;;;;;;4899910;29;20069;-69
2023/09/18 05:22:23;;;;;;;7.72;5.93;;;15.00;99.90;;;;;;4898989;29;20517;-68
2023/09/18 05:24:54;;;;;;;8.38;6.35;;;14.90;99.90;;;;;;4890875;29;20048;-68
2023/09/18 05:27:26;;;;;;;7.03;6.32;;;15.00;99.90;;;;;;4895376;29;20417;-68
2023/09/18 05:29:58;;;;;;;7.93;6.57;;;15.00;99.90;;;;;;4888266;29;20553;-68
2023/09/18 05:32:30;;;;;;;13.20;8.48;;;15.10;99.90;;;;;;4885428;29;20050;-69
2023/09/18 05:35:06;;;;;;;8.45;6.72;;;15.10;99.90;;;;;;4886844;29;20053;-68
2023/09/18 05:37:38;;;;;;;10.30;7.50;;;15.10;99.90;;;;;;4890303;29;20052;-68
2023/09/18 05:40:12;;;;;;;17.70;8.05;;;15.10;99.90;;;;;;4898347;29;20049;-68
2023/09/18 05:42:45;;;;;;;8.80;7.38;;;15.20;99.90;;;;;;4883066;29;20036;-68
2023/09/18 05:45:17;;;;;;;10.30;7.72;;;15.30;99.90;;;;;;4902396;29;20069;-69
2023/09/18 05:47:44;;;;;;;9.43;7.70;;;15.30;99.90;;;;;;4892861;29;20037;-68
2023/09/18 05:50:16;;;;;;;8.70;7.53;;;15.40;99.90;;;;;;4889473;29;20124;-69
2023/09/18 05:52:52;;;;;;;9.77;7.90;;;15.40;99.90;;;;;;4890784;29;20067;-69
2023/09/18 05:55:19;;;;;;;11.35;7.82;;;15.50;99.90;;;;;;4900768;29;20755;-67
2023/09/18 05:57:50;;;;;;;9.60;7.68;;;15.60;99.90;;;;;;4885607;29;20111;-68
2023/09/18 06:00:17;;;;;;;7.57;6.68;;;15.70;99.90;;;;;;4902782;29;20123;-68
2023/09/18 06:02:45;;;;;;;8.18;7.07;;;15.70;99.90;;;;;;4889096;29;20067;-69
2023/09/18 06:05:12;;;;;;;10.30;7.30;;;15.80;99.90;;;;;;4896606;29;20147;-68
2023/09/18 06:07:47;;;;;;;8.98;6.97;;;15.80;99.90;;;;;;4893671;29;20036;-68
2023/09/18 06:10:18;;;;;;;11.63;7.15;;;16.00;99.90;;;;;;4885412;29;20525;-68
2023/09/18 06:12:45;;;;;;;10.23;6.97;;;16.00;99.90;;;;;;4891115;29;20044;-68
2023/09/18 06:15:18;;;;;;;9.20;6.70;;;16.00;99.90;;;;;;4888117;29;20053;-68
2023/09/18 06:17:50;;;;;;;13.25;7.70;;;16.00;99.90;;;;;;4893337;29;20048;-68
2023/09/18 06:20:22;;;;;;;10.38;7.47;;;16.00;99.90;;;;;;4902211;29;20045;-68
2023/09/18 06:22:54;;;;;;;10.27;7.60;;;16.00;99.90;;;;;;4872313;29;20120;-68
2023/09/18 06:25:26;;;;;;;7.35;6.53;;;16.00;99.90;;;;;;4877398;29;20494;-68
2023/09/18 06:27:53;;;;;;;8.68;6.50;;;16.10;99.90;;;;;;4894520;29;20052;-68
2023/09/18 06:30:19;;;;;;;9.82;6.57;;;16.10;99.90;;;;;;4898549;29;20045;-68
2023/09/18 06:32:46;;;;;;;8.85;6.53;;;16.30;99.90;;;;;;4896216;29;20497;-68
2023/09/18 06:35:18;;;;;;;6.65;5.93;;;16.40;99.90;;;;;;4904338;29;20057;-68
2023/09/18 06:37:50;;;;;;;9.02;6.63;;;16.50;99.90;;;;;;4885234;29;20458;-68
2023/09/18 06:40:17;;;;;;;7.10;6.40;;;16.60;99.90;;;;;;4887627;29;20045;-68
2023/09/18 06:42:49;;;;;;;9.13;7.10;;;16.70;99.90;;;;;;4883685;29;20553;-68
2023/09/18 06:45:21;;;;;;;9.73;7.22;;;16.80;99.90;;;;;;4888156;29;20041;-68
2023/09/18 06:47:53;;;;;;;9.63;7.53;;;16.90;99.90;;;;;;4889452;29;20080;-68
2023/09/18 06:50:25;;;;;;;9.55;7.32;;;17.00;99.90;;;;;;4886853;29;20041;-68
2023/09/18 06:52:57;;;;;;;11.52;8.98;;;17.10;99.90;;;;;;4889168;29;20041;-68
2023/09/18 06:55:24;;;;;;;12.13;9.40;;;17.30;99.90;;;;;;4885578;29;20540;-68
2023/09/18 06:57:52;;;;;;;8.75;7.85;;;17.40;99.90;;;;;;4905803;29;20163;-68
2023/09/18 07:00:25;;;;;;;10.23;7.10;;;17.60;99.90;;;;;;4892728;29;20049;-68
2023/09/18 07:02:57;;;;;;;9.75;7.78;;;17.70;99.90;;;;;;4894024;29;20037;-68
2023/09/18 07:05:24;;;;;;;12.90;7.82;;;17.80;99.90;;;;;;4881248;29;20528;-68
2023/09/18 07:07:51;;;;;;;8.98;6.53;;;18.00;99.90;;;;;;4901634;29;20063;-68
2023/09/18 07:10:23;;;;;;;10.65;6.43;;;18.10;99.90;;;;;;4895085;29;20055;-68
2023/09/18 07:12:55;;;;;;;9.95;5.88;;;18.20;99.90;;;;;;4869453;29;20157;-67
2023/09/18 07:15:22;;;;;;;8.90;5.72;;;18.40;99.90;;;;;;4884088;29;20051;-68
2023/09/18 07:17:54;;;;;;;9.35;6.07;;;18.50;99.90;;;;;;4888717;29;20083;-68
2023/09/18 07:20:26;;;;;;;13.32;7.05;;;18.70;99.90;;;;;;4888917;29;20041;-68
2023/09/18 07:22:58;;;;;;;10.23;6.82;;;18.70;99.90;;;;;;4891147;29;20053;-68
2023/09/18 07:25:30;;;;;;;8.65;6.32;;;18.80;99.90;;;;;;4894662;29;20040;-68
2023/09/18 07:28:02;;;;;;;9.10;6.25;;;18.90;99.90;;;;;;4889295;29;20056;-68
2023/09/18 07:30:37;;;;;;;9.38;6.00;;;19.00;99.90;;;;;;4871470;29;20049;-69
2023/09/18 07:33:05;;;;;;;9.85;6.25;;;19.10;99.90;;;;;;4891415;29;20052;-68
2023/09/18 07:35:38;;;;;;;11.38;6.07;;;19.20;99.90;;;;;;4897206;29;20132;-68
2023/09/18 07:38:09;;;;;;;15.95;8.13;;;19.30;99.90;;;;;;4896703;29;20055;-67
2023/09/18 07:40:41;;;;;;;11.88;7.10;;;19.30;99.90;;;;;;4883010;29;20072;-67
2023/09/18 07:43:14;;;;;;;12.50;8.10;;;19.40;99.90;;;;;;4900567;29;20036;-68
2023/09/18 07:45:46;;;;;;;8.23;6.30;;;19.50;99.90;;;;;;4888351;29;20124;-68
2023/09/18 07:48:19;;;;;;;10.13;7.53;;;19.60;99.90;;;;;;4888185;29;20055;-68
2023/09/18 07:50:49;;;;;;;10.93;6.88;;;19.70;99.90;;;;;;4890771;29;20402;-68
2023/09/18 07:53:21;;;;;;;8.95;6.65;;;19.70;99.90;;;;;;4902729;29;20839;-68
2023/09/18 07:55:58;;;;;;;12.63;6.82;;;19.80;99.90;;;;;;4888892;29;20441;-68
2023/09/18 07:58:33;;;;;;;11.77;6.15;;;19.80;99.90;;;;;;4907100;29;20060;-68
2023/09/18 08:01:00;;;;;;;7.95;5.07;;;19.80;99.90;;;;;;4873772;29;20055;-68
2023/09/18 08:03:28;;;;;;;8.38;5.03;;;19.80;99.90;;;;;;4892881;29;20041;-67
2023/09/18 08:06:00;;;;;;;9.52;4.93;;;19.90;99.90;;;;;;4884563;29;20535;-68
2023/09/18 08:08:33;;;;;;;11.85;4.70;;;20.00;99.90;;;;;;4904724;29;20052;-68
2023/09/18 08:11:08;;;;;;;12.98;4.20;;;20.10;99.90;;;;;;4888593;29;20056;-68
2023/09/18 08:13:36;;;;;;;6.40;4.15;;;20.30;99.90;;;;;;4889716;29;20056;-67
2023/09/18 08:16:05;;;;;;;8.20;4.22;;;20.50;99.90;;;;;;4891333;29;20051;-68
2023/09/18 08:18:40;;;;;;;13.00;4.68;;;20.80;99.90;;;;;;4904968;29;20084;-68
2023/09/18 08:21:13;;;;;;;6.88;4.03;;;21.00;99.90;;;;;;4891334;29;20463;-68
2023/09/18 08:23:46;;;;;;;7.90;3.20;;;21.10;99.90;;;;;;4875734;29;20043;-68
2023/09/18 08:26:18;;;;;;;10.17;4.67;;;21.20;99.90;;;;;;4891515;29;20055;-68
2023/09/18 08:28:50;;;;;;;7.38;4.05;;;21.30;99.90;;;;;;4887978;29;20062;-68
2023/09/18 08:31:23;;;;;;;7.30;3.42;;;21.30;99.90;;;;;;4890940;29;20072;-68
2023/09/18 08:33:55;;;;;;;7.72;3.42;;;21.40;99.90;;;;;;4889291;29;20051;-68
2023/09/18 08:36:22;;;;;;;9.40;3.85;;;21.50;99.90;;;;;;4886512;29;20538;-68
2023/09/18 08:38:54;;;;;;;9.73;4.00;;;21.60;99.90;;;;;;4887423;29;20045;-68
2023/09/18 08:41:30;;;;;;;6.63;3.08;;;21.80;99.90;;;;;;4886864;29;20048;-68
2023/09/18 08:44:03;;;;;;;8.95;3.55;;;21.90;99.90;;;;;;4890434;29;20067;-68
2023/09/18 08:46:39;;;;;;;8.32;3.50;;;22.10;99.90;;;;;;4891034;29;20037;-68
2023/09/18 08:49:11;;;;;;;7.10;3.15;;;22.20;99.90;;;;;;4886778;29;20754;-68
2023/09/18 08:51:44;;;;;;;7.90;3.03;;;22.30;99.90;;;;;;4889996;29;20088;-68
2023/09/18 08:54:16;;;;;;;8.95;3.38;;;22.30;99.90;;;;;;4893628;29;20053;-68
2023/09/18 08:56:48;;;;;;;7.93;2.80;;;22.30;99.90;;;;;;4875498;29;20127;-68
2023/09/18 08:59:22;;;;;;;8.75;3.20;;;22.30;99.90;;;;;;4893074;29;20049;-68
2023/09/18 09:01:53;;;;;;;10.23;4.35;;;22.30;99.90;;;;;;4898193;29;20041;-67
2023/09/18 09:04:20;;;;;;;11.10;3.63;;;22.20;99.90;;;;;;4899184;29;20062;-68
2023/09/18 09:06:48;;;;;;;13.05;3.85;;;22.20;99.90;;;;;;4898310;29;20032;-68
2023/09/18 09:09:20;;;;;;;8.63;2.53;;;22.10;99.90;;;;;;4897645;29;20060;-68
2023/09/18 09:11:52;;;;;;;11.73;3.13;;;22.10;99.90;;;;;;4900005;29;20092;-67
2023/09/18 09:14:30;;;;;;;7.30;3.83;;;22.00;99.90;;;;;;4881544;29;20069;-68
2023/09/18 09:17:03;;;;;;;8.93;2.97;;;22.00;99.90;;;;;;4889932;29;20288;-66
2023/09/18 09:19:38;;;;;;;8.95;2.75;;;22.10;99.90;;;;;;4905893;29;20055;-67
2023/09/18 09:22:20;;;;;;;10.13;2.83;;;21.90;99.90;;;;;;4882996;29;20053;-68
2023/09/18 09:24:52;;;;;;;6.80;2.65;;;22.00;99.90;;;;;;4902786;29;20131;-68
2023/09/18 09:27:19;;;;;;;7.82;2.83;;;22.00;99.90;;;;;;4870249;29;20043;-67
2023/09/18 09:30:01;;;;;;;13.38;3.17;;;22.00;99.90;;;;;;4894454;29;20092;-68
2023/09/18 09:32:32;;;;;;;10.95;3.35;;;22.00;99.90;;;;;;4902147;29;20049;-67
2023/09/18 09:35:07;;;;;;;21.27;4.65;;;22.00;99.90;;;;;;4888116;29;20049;-67
2023/09/18 09:37:39;;;;;;;9.55;2.72;;;22.20;99.90;;;;;;4882262;29;20044;-68
2023/09/18 09:40:09;;;;;;;8.43;3.00;;;22.20;99.90;;;;;;4897115;29;20043;-69
2023/09/18 09:42:41;;;;;;;16.85;3.25;;;22.10;99.90;;;;;;4895274;29;20518;-68
2023/09/18 09:45:17;;;;;;;13.20;3.13;;;22.20;99.90;;;;;;4886667;29;20113;-67
2023/09/18 09:47:45;;;;;;;10.82;3.10;;;22.00;99.90;;;;;;4884927;29;20509;-67
2023/09/18 09:50:18;;;;;;;7.68;2.70;;;22.00;99.90;;;;;;4892732;29;20060;-68
2023/09/18 09:52:50;;;;;;;7.40;2.90;;;21.90;99.90;;;;;;4896020;29;20128;-67
2023/09/18 09:55:30;;;;;;;9.30;2.50;;;21.90;99.90;;;;;;4874373;29;20406;-68
2023/09/18 09:58:04;;;;;;;7.15;2.63;;;21.80;99.90;;;;;;4899993;29;20040;-68
2023/09/18 10:00:43;;;;;;;10.80;2.95;;;21.80;99.90;;;;;;4890530;29;20041;-67
2023/09/18 10:03:15;;;;;;;12.23;3.08;;;21.80;99.90;;;;;;4892549;29;20127;-67
2023/09/18 10:05:51;;;;;;;10.70;3.55;;;21.70;99.90;;;;;;4894607;29;20041;-68
2023/09/18 10:08:26;;;;;;;9.65;3.03;;;21.70;99.90;;;;;;4888117;29;20102;-68
2023/09/18 10:10:56;;;;;;;10.70;3.33;;;21.70;99.90;;;;;;4902511;29;20047;-67
2023/09/18 10:13:34;;;;;;;11.52;3.70;;;21.60;99.90;;;;;;4890627;29;20063;-68
2023/09/18 10:16:07;;;;;;;11.05;4.10;;;21.60;99.90;;;;;;4892475;29;20501;-68
2023/09/18 10:18:53;;;;;;;6.38;2.97;;;21.60;99.90;;;;;;4894632;29;20056;-68
2023/09/18 10:21:35;;;;;;;;;;;21.60;99.90;;;;;;4884665;29;20037;-67
2023/09/18 10:24:18;;;;;;;12.27;3.03;;;21.60;99.90;;;;;;4890456;29;20361;-68
2023/09/18 10:26:56;;;;;;;9.15;2.50;;;21.50;99.90;;;;;;4891414;29;20392;-67
2023/09/18 10:29:30;;;;;;;9.70;3.63;;;21.30;99.90;;;;;;4888054;29;20040;-67
2023/09/18 10:32:09;;;;;;;6.95;2.20;;;21.20;99.90;;;;;;4901319;29;20426;-68
2023/09/18 10:34:36;;;;;;;7.50;2.80;;;21.10;99.90;;;;;;4900567;29;20051;-67
2023/09/18 10:37:10;;;;;;;5.93;2.38;;;21.00;99.90;;;;;;4891258;29;20104;-68
2023/09/18 10:39:43;;;;;;;;;;;20.90;99.90;;;;;;4887645;29;20049;-68
2023/09/18 10:42:17;;;;;;;6.13;2.88;;;20.70;99.90;;;;;;4888823;29;20446;-68
2023/09/18 10:44:49;;;;;;;6.20;2.30;;;20.50;99.90;;;;;;4896554;29;20041;-67
2023/09/18 10:47:22;;;;;;;8.85;2.72;;;20.40;99.90;;;;;;4906122;29;20049;-67
2023/09/18 10:49:54;;;;;;;10.27;2.92;;;20.30;99.90;;;;;;4896469;29;20048;-67
2023/09/18 10:52:27;;;;;;;6.70;2.20;;;20.10;99.90;;;;;;4883671;29;20060;-67
2023/09/18 10:55:00;;;;;;;5.83;2.93;;;20.00;99.90;;;;;;4888843;29;20036;-67
2023/09/18 10:57:27;;;;;;;6.97;2.67;;;19.80;99.90;;;;;;4896171;29;20384;-68
2023/09/18 10:59:54;;;;;;;8.05;2.50;;;19.70;99.90;;;;;;4893961;29;20128;-68
2023/09/18 11:02:21;;;;;;;6.45;2.17;;;19.70;99.90;;;;;;4895756;29;20041;-68
2023/09/18 11:04:54;;;;;;;6.43;3.03;;;19.50;99.90;;;;;;4908004;29;20045;-67
2023/09/18 11:07:26;;;;;;;7.88;2.45;;;19.50;99.90;;;;;;4893052;29;20040;-68
2023/09/18 11:09:53;;;;;;;5.70;2.47;;;19.40;99.90;;;;;;4886725;29;20128;-68
2023/09/18 11:12:45;;;;;;;7.05;2.40;;;19.30;99.90;;;;;;4884840;29;20589;-68
2023/09/18 11:15:32;;;;;;;5.75;1.95;;;19.20;99.90;;;;;;4887458;29;20044;-68
2023/09/18 11:18:04;;;;;;;4.82;2.03;;;19.10;99.90;;;;;;4904694;29;20051;-67
2023/09/18 11:20:37;;;;;;;4.53;2.20;;;19.00;99.90;;;;;;4900849;29;20463;-68
2023/09/18 11:23:15;;;;;;;4.80;2.10;;;18.90;99.90;;;;;;4887750;29;20088;-68
2023/09/18 11:25:45;;;;;;;6.32;2.20;;;18.90;99.90;;;;;;4893025;29;20555;-66
2023/09/18 11:28:25;;;;;;;4.75;2.10;;;18.80;99.90;;;;;;4881430;29;20049;-68
2023/09/18 11:31:01;;;;;;;6.07;1.70;;;18.70;99.90;;;;;;4883981;29;20144;-68
2023/09/18 11:33:43;;;;;;;5.85;1.95;;;18.50;99.90;;;;;;4914465;29;20044;-68
2023/09/18 11:36:36;;;;;;;3.88;1.60;;;18.50;99.90;;;;;;4900156;29;20127;-68
2023/09/18 11:39:03;;;;;;;3.95;1.83;;;18.30;99.90;;;;;;4902152;29;20036;-68
2023/09/18 11:41:38;;;;;;;4.40;1.90;;;18.30;99.90;;;;;;4894012;29;20045;-68
2023/09/18 11:44:18;;;;;;;4.55;2.40;;;18.20;99.90;;;;;;4898018;29;20041;-67
2023/09/18 11:46:48;;;;;;;4.30;2.03;;;18.10;99.90;;;;;;4920884;29;20037;-67
2023/09/18 11:49:21;;;;;;;4.72;1.75;;;18.00;99.90;;;;;;4895132;29;20638;-68
2023/09/18 11:51:58;;;;;;;5.88;2.33;;;18.00;99.90;;;;;;4903408;29;20058;-68
2023/09/18 11:54:27;;;;;;;5.63;1.90;;;18.00;99.90;;;;;;4906743;29;20044;-67
2023/09/18 11:57:06;;;;;;;5.20;1.98;;;18.00;99.90;;;;;;4900119;29;20143;-68
2023/09/18 11:59:42;;;;;;;3.38;1.63;;;18.00;99.90;;;;;;4898406;29;20049;-68
2023/09/18 12:02:41;;;;;;;5.15;2.05;;;18.00;99.90;;;;;;4874043;29;20047;-68
2023/09/18 12:05:13;;;;;;;7.43;2.28;;;18.00;99.90;;;;;;4893434;29;20044;-68
2023/09/18 12:07:46;;;;;;;3.63;1.92;;;18.10;99.90;;;;;;4886999;29;20045;-68
2023/09/18 12:10:22;;;;;;;;;;;18.10;99.90;;;;;;4878594;29;20049;-67
2023/09/18 12:12:50;;;;;;;3.78;1.90;;;18.10;99.90;;;;;;4903682;29;20018;-68
2023/09/18 12:15:23;;;;;;;3.90;2.00;;;18.10;99.90;;;;;;4890167;29;20049;-68
2023/09/18 12:17:55;;;;;;;5.13;2.40;;;18.10;99.90;;;;;;4887233;29;20053;-68
2023/09/18 12:20:27;;;;;;;5.90;2.00;;;18.10;99.90;;;;;;4896019;29;20041;-69
2023/09/18 12:22:59;;;;;;;5.35;2.20;;;18.10;99.90;;;;;;4905567;29;20049;-68
2023/09/18 12:25:26;;;;;;;4.75;2.63;;;18.10;99.90;;;;;;4897178;29;20044;-68
2023/09/18 12:28:00;;;;;;;4.10;2.13;;;18.00;99.90;;;;;;4892474;29;20051;-68
2023/09/18 12:30:33;;;;;;;4.95;1.67;;;18.00;99.90;;;;;;4904155;29;20044;-68
2023/09/18 12:33:01;;;;;;;5.75;1.67;;;17.90;99.90;;;;;;4891416;29;20518;-68
2023/09/18 12:35:34;;;;;;;5.13;1.48;;;17.90;99.90;;;;;;4893640;29;20053;-68
2023/09/18 12:38:15;;;;;;;3.95;1.30;;;17.80;99.90;;;;;;4894702;29;20050;-68
2023/09/18 12:40:48;;;;;;;3.08;1.63;;;17.80;99.90;;;;;;4888216;29;20059;-68
2023/09/18 12:43:24;;;;;;;2.22;1.25;;;17.80;99.90;;;;;;4888434;29;20051;-68
2023/09/18 12:45:56;;;;;;;5.95;1.80;;;17.80;99.90;;;;;;4883901;29;20041;-68
2023/09/18 12:48:28;;;;;;;6.82;2.78;;;17.70;99.90;;;;;;4892089;29;20051;-68
2023/09/18 12:51:01;;;;;;;3.85;1.50;;;17.70;99.90;;;;;;4891598;29;20040;-68
2023/09/18 12:53:34;;;;;;;3.33;1.40;;;17.70;99.90;;;;;;4886070;29;20045;-67
2023/09/18 12:56:15;;;;;;;3.40;1.67;;;17.80;99.90;;;;;;4890668;29;20049;-68
2023/09/18 12:58:48;;;;;;;2.70;1.25;;;17.70;99.90;;;;;;4891169;29;20051;-68
2023/09/18 13:01:21;;;;;;;2.78;1.40;;;17.80;99.90;;;;;;4889424;29;20044;-68
2023/09/18 13:03:54;;;;;;;;;;;17.60;99.90;;;;;;4904263;29;20053;-70
2023/09/18 13:06:26;;;;;;;2.03;1.17;;;17.60;99.90;;;;;;4872363;29;20388;-66
2023/09/18 13:09:19;;;;;;;1.83;1.10;;;17.60;99.90;;;;;;4910389;29;20048;-67
2023/09/18 13:11:56;;;;;;;2.90;1.50;;;17.60;99.90;;;;;;4893993;29;20052;-67